sensor_id;sensor_type;location;lat;lon;timestamp;pressure;altitude;pressure_sealevel;temperature;humidity
53679;BME280;40119;52.030;4.708;2023-04-27T08:37:54;102178.32;;;9.68;41.85
53679;BME280;40119;52.030;4.708;2023-04-27T08:39:58;102181.12;;;9.40;41.30
53679;BME280;40119;52.030;4.708;2023-04-27T08:42:09;102173.85;;;11.44;35.11
53679;BME280;40119;52.030;4.708;2023-04-27T08:44:14;102179.34;;;8.12;39.56
53679;BME280;40119;52.030;4.708;2023-04-27T08:46:21;102164.85;;;12.92;31.53
53679;BME280;40119;52.030;4.708;2023-04-27T08:48:25;102165.71;;;13.12;32.46
53679;BME280;40119;52.030;4.708;2023-04-27T08:50:29;102171.52;;;9.70;36.26
53679;BME280;40119;52.030;4.708;2023-04-27T08:52:34;102162.99;;;11.62;32.74
53679;BME280;40119;52.030;4.708;2023-04-27T08:54:45;102164.66;;;14.18;29.82
53679;BME280;40119;52.030;4.708;2023-04-27T08:56:49;102159.49;;;16.02;27.84
53679;BME280;40119;52.030;4.708;2023-04-27T08:58:54;102154.95;;;16.53;27.48
53679;BME280;40119;52.030;4.708;2023-04-27T09:01:04;102166.20;;;13.92;29.23
53679;BME280;40119;52.030;4.708;2023-04-27T09:03:22;102162.71;;;14.15;28.92
53679;BME280;40119;52.030;4.708;2023-04-27T09:05:27;102154.21;;;16.41;25.99
53679;BME280;40119;52.030;4.708;2023-04-27T09:07:31;102154.14;;;16.92;26.65
53679;BME280;40119;52.030;4.708;2023-04-27T09:09:36;102150.58;;;15.29;27.83
53679;BME280;40119;52.030;4.708;2023-04-27T09:11:40;102147.68;;;18.02;25.21
53679;BME280;40119;52.030;4.708;2023-04-27T09:13:44;102150.69;;;16.48;25.83
53679;BME280;40119;52.030;4.708;2023-04-27T09:15:49;102150.01;;;18.08;23.84
53679;BME280;40119;52.030;4.708;2023-04-27T09:17:55;102153.13;;;17.09;25.16
53679;BME280;40119;52.030;4.708;2023-04-27T09:20:03;102154.20;;;15.47;26.99
53679;BME280;40119;52.030;4.708;2023-04-27T09:22:09;102154.50;;;13.90;29.27
53679;BME280;40119;52.030;4.708;2023-04-27T09:24:13;102153.91;;;15.26;26.37
53679;BME280;40119;52.030;4.708;2023-04-27T09:26:19;102147.99;;;15.87;25.70
53679;BME280;40119;52.030;4.708;2023-04-27T09:28:25;102147.07;;;17.32;23.85
53679;BME280;40119;52.030;4.708;2023-04-27T09:30:30;102142.30;;;16.62;22.55
53679;BME280;40119;52.030;4.708;2023-04-27T09:40:05;102146.70;;;16.65;24.99
53679;BME280;40119;52.030;4.708;2023-04-27T09:42:11;102151.19;;;13.83;25.99
53679;BME280;40119;52.030;4.708;2023-04-27T09:44:16;102157.86;;;13.57;27.18
53679;BME280;40119;52.030;4.708;2023-04-27T09:46:22;102156.49;;;14.71;25.75
53679;BME280;40119;52.030;4.708;2023-04-27T09:48:26;102156.69;;;16.42;23.25
53679;BME280;40119;52.030;4.708;2023-04-27T09:50:34;102157.42;;;14.37;25.86
53679;BME280;40119;52.030;4.708;2023-04-27T09:52:39;102157.27;;;14.10;26.16
53679;BME280;40119;52.030;4.708;2023-04-27T09:54:43;102156.83;;;12.22;27.85
53679;BME280;40119;52.030;4.708;2023-04-27T09:56:56;102152.07;;;15.50;25.41
53679;BME280;40119;52.030;4.708;2023-04-27T09:59:23;102157.09;;;13.23;28.85
53679;BME280;40119;52.030;4.708;2023-04-27T10:01:38;102153.87;;;12.90;28.40
53679;BME280;40119;52.030;4.708;2023-04-27T10:03:52;102151.55;;;14.67;25.34
53679;BME280;40119;52.030;4.708;2023-04-27T10:06:35;102148.50;;;15.79;25.15
53679;BME280;40119;52.030;4.708;2023-04-27T10:08:46;102150.11;;;14.46;26.58
53679;BME280;40119;52.030;4.708;2023-04-27T10:10:55;102141.97;;;16.81;24.91
53679;BME280;40119;52.030;4.708;2023-04-27T10:13:00;102144.17;;;15.25;26.31
53679;BME280;40119;52.030;4.708;2023-04-27T10:15:14;102147.75;;;13.29;27.72
53679;BME280;40119;52.030;4.708;2023-04-27T10:17:23;102138.37;;;16.69;23.95
53679;BME280;40119;52.030;4.708;2023-04-27T10:19:28;102141.10;;;15.77;25.09
53679;BME280;40119;52.030;4.708;2023-04-27T10:21:32;102141.60;;;14.43;24.35
53679;BME280;40119;52.030;4.708;2023-04-27T10:23:45;102135.62;;;16.70;21.89
53679;BME280;40119;52.030;4.708;2023-04-27T10:25:50;102154.23;;;13.13;26.64
53679;BME280;40119;52.030;4.708;2023-04-27T10:27:56;102140.13;;;15.43;25.82
53679;BME280;40119;52.030;4.708;2023-04-27T10:30:08;102146.26;;;13.05;27.67
53679;BME280;40119;52.030;4.708;2023-04-27T10:32:18;102135.99;;;15.99;23.09
53679;BME280;40119;52.030;4.708;2023-04-27T10:34:27;102134.46;;;16.48;22.05
53679;BME280;40119;52.030;4.708;2023-04-27T10:36:37;102139.59;;;15.36;23.84
53679;BME280;40119;52.030;4.708;2023-04-27T10:38:42;102135.77;;;15.41;24.45
53679;BME280;40119;52.030;4.708;2023-04-27T10:40:54;102137.02;;;12.83;27.88
53679;BME280;40119;52.030;4.708;2023-04-27T10:43:08;102137.84;;;14.04;27.80
53679;BME280;40119;52.030;4.708;2023-04-27T10:45:13;102127.75;;;15.46;23.80
53679;BME280;40119;52.030;4.708;2023-04-27T10:47:36;102126.92;;;16.15;23.20
53679;BME280;40119;52.030;4.708;2023-04-27T10:52:13;102120.11;;;17.20;23.45
53679;BME280;40119;52.030;4.708;2023-04-27T10:54:18;102125.90;;;13.46;27.34
53679;BME280;40119;52.030;4.708;2023-04-27T10:56:22;102118.94;;;16.90;24.36
53679;BME280;40119;52.030;4.708;2023-04-27T10:58:26;102114.71;;;17.37;22.83
53679;BME280;40119;52.030;4.708;2023-04-27T11:00:32;102118.08;;;14.67;25.59
53679;BME280;40119;52.030;4.708;2023-04-27T11:02:38;102110.50;;;15.23;27.40
53679;BME280;40119;52.030;4.708;2023-04-27T11:04:42;102108.99;;;16.01;24.47
53679;BME280;40119;52.030;4.708;2023-04-27T11:06:47;102107.82;;;14.20;26.11
53679;BME280;40119;52.030;4.708;2023-04-27T11:09:10;102106.87;;;14.75;24.63
53679;BME280;40119;52.030;4.708;2023-04-27T11:11:15;102106.60;;;13.85;27.17
53679;BME280;40119;52.030;4.708;2023-04-27T11:13:25;102103.52;;;14.15;24.77
53679;BME280;40119;52.030;4.708;2023-04-27T11:15:29;102106.35;;;12.81;26.34
53679;BME280;40119;52.030;4.708;2023-04-27T11:17:36;102101.04;;;14.47;25.06
53679;BME280;40119;52.030;4.708;2023-04-27T11:19:48;102106.86;;;12.88;28.51
53679;BME280;40119;52.030;4.708;2023-04-27T11:22:01;102102.83;;;12.79;28.36
53679;BME280;40119;52.030;4.708;2023-04-27T11:24:07;102092.19;;;15.60;23.70
53679;BME280;40119;52.030;4.708;2023-04-27T11:26:13;102096.42;;;16.48;23.53
53679;BME280;40119;52.030;4.708;2023-04-27T11:28:18;102090.94;;;15.65;24.42
53679;BME280;40119;52.030;4.708;2023-04-27T11:30:29;102096.42;;;12.83;28.78
53679;BME280;40119;52.030;4.708;2023-04-27T11:32:34;102097.81;;;14.22;25.62
53679;BME280;40119;52.030;4.708;2023-04-27T11:34:48;102088.46;;;15.04;23.82
53679;BME280;40119;52.030;4.708;2023-04-27T11:36:59;102084.46;;;17.38;21.71
53679;BME280;40119;52.030;4.708;2023-04-27T11:39:15;102091.55;;;13.07;25.88
53679;BME280;40119;52.030;4.708;2023-04-27T11:41:19;102082.50;;;14.18;25.68
53679;BME280;40119;52.030;4.708;2023-04-27T11:43:25;102077.12;;;12.98;27.63
53679;BME280;40119;52.030;4.708;2023-04-27T11:45:29;102079.71;;;14.70;25.01
53679;BME280;40119;52.030;4.708;2023-04-27T11:47:36;102076.83;;;15.74;23.65
53679;BME280;40119;52.030;4.708;2023-04-27T11:49:45;102086.48;;;13.59;27.76
53679;BME280;40119;52.030;4.708;2023-04-27T11:51:50;102089.69;;;14.45;25.56
53679;BME280;40119;52.030;4.708;2023-04-27T11:53:55;102084.38;;;14.48;24.56
53679;BME280;40119;52.030;4.708;2023-04-27T11:55:59;102083.14;;;14.24;25.27
53679;BME280;40119;52.030;4.708;2023-04-27T11:58:04;102084.78;;;11.19;29.12
53679;BME280;40119;52.030;4.708;2023-04-27T12:00:09;102079.69;;;13.84;24.22
53679;BME280;40119;52.030;4.708;2023-04-27T12:02:14;102082.80;;;12.29;25.65
53679;BME280;40119;52.030;4.708;2023-04-27T12:04:19;102079.45;;;11.57;28.88
53679;BME280;40119;52.030;4.708;2023-04-27T12:06:24;102069.97;;;15.92;23.49
53679;BME280;40119;52.030;4.708;2023-04-27T12:08:29;102078.39;;;14.40;24.32
53679;BME280;40119;52.030;4.708;2023-04-27T12:10:33;102076.87;;;13.87;25.80
53679;BME280;40119;52.030;4.708;2023-04-27T12:12:37;102074.39;;;15.10;24.09
53679;BME280;40119;52.030;4.708;2023-04-27T12:14:42;102074.24;;;16.32;23.77
53679;BME280;40119;52.030;4.708;2023-04-27T12:16:46;102067.96;;;16.82;22.88
53679;BME280;40119;52.030;4.708;2023-04-27T12:18:51;102064.09;;;16.54;22.39
53679;BME280;40119;52.030;4.708;2023-04-27T12:20:55;102059.94;;;17.28;21.93
53679;BME280;40119;52.030;4.708;2023-04-27T12:23:00;102057.87;;;16.49;23.13
53679;BME280;40119;52.030;4.708;2023-04-27T12:25:05;102065.35;;;15.04;22.86
53679;BME280;40119;52.030;4.708;2023-04-27T12:27:11;102060.94;;;16.91;20.48
53679;BME280;40119;52.030;4.708;2023-04-27T12:29:16;102059.32;;;16.75;20.68
53679;BME280;40119;52.030;4.708;2023-04-27T12:31:21;102060.51;;;15.17;23.05
53679;BME280;40119;52.030;4.708;2023-04-27T12:33:26;102054.84;;;17.14;21.23
53679;BME280;40119;52.030;4.708;2023-04-27T12:35:30;102055.02;;;14.14;23.82
53679;BME280;40119;52.030;4.708;2023-04-27T12:37:36;102048.79;;;14.73;24.03
53679;BME280;40119;52.030;4.708;2023-04-27T12:39:40;102040.51;;;16.68;20.59
53679;BME280;40119;52.030;4.708;2023-04-27T12:41:47;102038.88;;;15.05;22.81
53679;BME280;40119;52.030;4.708;2023-04-27T12:43:52;102040.31;;;14.59;25.37
53679;BME280;40119;52.030;4.708;2023-04-27T12:45:56;102041.82;;;13.78;24.58
53679;BME280;40119;52.030;4.708;2023-04-27T12:48:02;102036.92;;;17.81;21.30
53679;BME280;40119;52.030;4.708;2023-04-27T12:50:07;102037.56;;;16.19;21.63
53679;BME280;40119;52.030;4.708;2023-04-27T12:52:12;102040.29;;;16.41;22.09
53679;BME280;40119;52.030;4.708;2023-04-27T12:54:17;102033.69;;;16.98;21.91
53679;BME280;40119;52.030;4.708;2023-04-27T12:56:21;102034.27;;;16.20;21.13
53679;BME280;40119;52.030;4.708;2023-04-27T12:58:25;102031.04;;;13.61;23.40
53679;BME280;40119;52.030;4.708;2023-04-27T13:00:29;102030.36;;;16.58;21.43
53679;BME280;40119;52.030;4.708;2023-04-27T13:02:34;102031.61;;;18.78;20.09
53679;BME280;40119;52.030;4.708;2023-04-27T13:04:44;102029.44;;;18.05;20.47
53679;BME280;40119;52.030;4.708;2023-04-27T13:06:48;102031.48;;;18.45;20.60
53679;BME280;40119;52.030;4.708;2023-04-27T13:08:52;102038.17;;;16.03;21.95
53679;BME280;40119;52.030;4.708;2023-04-27T13:10:56;102032.38;;;16.65;23.05
53679;BME280;40119;52.030;4.708;2023-04-27T13:13:01;102034.88;;;15.60;22.39
53679;BME280;40119;52.030;4.708;2023-04-27T13:15:06;102027.93;;;16.47;21.79
53679;BME280;40119;52.030;4.708;2023-04-27T13:17:11;102028.22;;;13.96;25.05
53679;BME280;40119;52.030;4.708;2023-04-27T13:19:15;102021.21;;;16.14;22.39
53679;BME280;40119;52.030;4.708;2023-04-27T13:21:20;102023.96;;;15.73;23.71
53679;BME280;40119;52.030;4.708;2023-04-27T13:23:24;102018.64;;;17.34;23.47
53679;BME280;40119;52.030;4.708;2023-04-27T13:25:29;102018.61;;;16.04;23.87
53679;BME280;40119;52.030;4.708;2023-04-27T13:27:34;102014.69;;;16.02;23.81
53679;BME280;40119;52.030;4.708;2023-04-27T13:29:38;102015.00;;;16.31;22.90
53679;BME280;40119;52.030;4.708;2023-04-27T13:31:44;102011.31;;;17.27;22.24
53679;BME280;40119;52.030;4.708;2023-04-27T13:33:48;102006.10;;;19.10;20.29
53679;BME280;40119;52.030;4.708;2023-04-27T13:35:53;102003.70;;;18.50;19.50
53679;BME280;40119;52.030;4.708;2023-04-27T13:37:57;101999.94;;;17.67;20.69
53679;BME280;40119;52.030;4.708;2023-04-27T13:40:01;102007.62;;;14.49;22.92
53679;BME280;40119;52.030;4.708;2023-04-27T13:42:05;102003.11;;;16.42;21.13
53679;BME280;40119;52.030;4.708;2023-04-27T13:44:10;101996.18;;;16.86;21.27
53679;BME280;40119;52.030;4.708;2023-04-27T13:46:14;101992.39;;;16.17;21.90
53679;BME280;40119;52.030;4.708;2023-04-27T13:48:18;101993.25;;;16.34;21.83
53679;BME280;40119;52.030;4.708;2023-04-27T13:50:22;101994.67;;;15.52;23.03
53679;BME280;40119;52.030;4.708;2023-04-27T13:52:27;101991.61;;;16.92;21.85
53679;BME280;40119;52.030;4.708;2023-04-27T13:54:31;101986.46;;;15.44;22.34
53679;BME280;40119;52.030;4.708;2023-04-27T13:56:36;101983.72;;;12.71;24.79
53679;BME280;40119;52.030;4.708;2023-04-27T13:58:40;101979.31;;;12.49;25.33
53679;BME280;40119;52.030;4.708;2023-04-27T14:00:44;101973.57;;;11.15;27.37
53679;BME280;40119;52.030;4.708;2023-04-27T14:02:48;101973.98;;;10.44;28.71
53679;BME280;40119;52.030;4.708;2023-04-27T14:05:09;101964.53;;;10.54;28.49
53679;BME280;40119;52.030;4.708;2023-04-27T14:07:13;101961.66;;;13.07;25.31
53679;BME280;40119;52.030;4.708;2023-04-27T14:09:17;101952.82;;;15.36;24.32
53679;BME280;40119;52.030;4.708;2023-04-27T14:11:23;101954.25;;;13.06;26.15
53679;BME280;40119;52.030;4.708;2023-04-27T14:13:28;101955.13;;;13.97;25.66
53679;BME280;40119;52.030;4.708;2023-04-27T14:15:32;101954.68;;;12.72;26.10
53679;BME280;40119;52.030;4.708;2023-04-27T14:17:36;101954.94;;;12.75;26.59
53679;BME280;40119;52.030;4.708;2023-04-27T14:19:40;101953.56;;;13.44;26.16
53679;BME280;40119;52.030;4.708;2023-04-27T14:21:45;101949.71;;;13.95;25.17
53679;BME280;40119;52.030;4.708;2023-04-27T14:23:49;101945.17;;;14.32;25.13
53679;BME280;40119;52.030;4.708;2023-04-27T14:25:53;101941.91;;;12.21;28.37
53679;BME280;40119;52.030;4.708;2023-04-27T14:27:58;101934.88;;;13.51;25.46
53679;BME280;40119;52.030;4.708;2023-04-27T14:30:03;101931.12;;;15.29;24.77
53679;BME280;40119;52.030;4.708;2023-04-27T14:32:08;101936.19;;;13.45;25.44
53679;BME280;40119;52.030;4.708;2023-04-27T14:34:12;101929.67;;;15.85;23.49
53679;BME280;40119;52.030;4.708;2023-04-27T14:36:17;101930.67;;;14.78;24.07
53679;BME280;40119;52.030;4.708;2023-04-27T14:38:21;101933.09;;;13.25;25.38
53679;BME280;40119;52.030;4.708;2023-04-27T14:40:25;101939.06;;;14.63;25.41
53679;BME280;40119;52.030;4.708;2023-04-27T14:42:30;101946.72;;;8.76;31.79
53679;BME280;40119;52.030;4.708;2023-04-27T14:44:35;101940.58;;;12.59;27.35
53679;BME280;40119;52.030;4.708;2023-04-27T14:46:39;101936.50;;;13.95;24.83
53679;BME280;40119;52.030;4.708;2023-04-27T14:48:44;101926.15;;;14.69;24.61
53679;BME280;40119;52.030;4.708;2023-04-27T14:50:48;101926.52;;;13.82;25.47
53679;BME280;40119;52.030;4.708;2023-04-27T14:52:52;101919.70;;;13.09;25.44
53679;BME280;40119;52.030;4.708;2023-04-27T14:54:57;101914.85;;;13.03;26.74
53679;BME280;40119;52.030;4.708;2023-04-27T14:57:02;101905.00;;;12.73;26.43
53679;BME280;40119;52.030;4.708;2023-04-27T14:59:06;101897.95;;;14.18;24.58
53679;BME280;40119;52.030;4.708;2023-04-27T15:01:11;101909.32;;;13.39;24.99
53679;BME280;40119;52.030;4.708;2023-04-27T15:03:15;101907.80;;;13.90;22.83
53679;BME280;40119;52.030;4.708;2023-04-27T15:05:20;101906.27;;;13.87;23.54
53679;BME280;40119;52.030;4.708;2023-04-27T15:07:24;101909.40;;;13.86;23.04
53679;BME280;40119;52.030;4.708;2023-04-27T15:09:28;101916.56;;;13.35;24.70
53679;BME280;40119;52.030;4.708;2023-04-27T15:11:32;101913.81;;;13.94;24.00
53679;BME280;40119;52.030;4.708;2023-04-27T15:13:36;101911.66;;;14.73;22.26
53679;BME280;40119;52.030;4.708;2023-04-27T15:15:40;101907.11;;;15.86;22.25
53679;BME280;40119;52.030;4.708;2023-04-27T15:17:44;101916.94;;;12.48;26.36
53679;BME280;40119;52.030;4.708;2023-04-27T15:19:49;101912.97;;;14.84;23.54
53679;BME280;40119;52.030;4.708;2023-04-27T15:21:53;101908.61;;;14.11;23.38
53679;BME280;40119;52.030;4.708;2023-04-27T15:23:57;101909.14;;;9.61;28.32
53679;BME280;40119;52.030;4.708;2023-04-27T15:26:04;101897.86;;;13.16;24.18
53679;BME280;40119;52.030;4.708;2023-04-27T15:28:08;101891.83;;;14.07;23.56
53679;BME280;40119;52.030;4.708;2023-04-27T15:30:13;101884.92;;;14.54;23.32
53679;BME280;40119;52.030;4.708;2023-04-27T15:32:18;101889.66;;;11.69;26.21
53679;BME280;40119;52.030;4.708;2023-04-27T15:34:23;101886.65;;;11.43;27.71
53679;BME280;40119;52.030;4.708;2023-04-27T15:36:27;101882.58;;;13.13;24.78
53679;BME280;40119;52.030;4.708;2023-04-27T15:38:31;101868.77;;;14.73;23.26
53679;BME280;40119;52.030;4.708;2023-04-27T15:40:36;101871.71;;;14.05;23.73
53679;BME280;40119;52.030;4.708;2023-04-27T15:42:41;101874.61;;;11.71;26.36
53679;BME280;40119;52.030;4.708;2023-04-27T15:44:45;101872.79;;;10.46;27.16
53679;BME280;40119;52.030;4.708;2023-04-27T15:46:49;101863.60;;;10.12;28.38
53679;BME280;40119;52.030;4.708;2023-04-27T15:48:53;101861.52;;;10.65;28.04
53679;BME280;40119;52.030;4.708;2023-04-27T15:50:57;101850.64;;;13.88;24.48
53679;BME280;40119;52.030;4.708;2023-04-27T15:53:01;101857.53;;;11.30;27.12
53679;BME280;40119;52.030;4.708;2023-04-27T15:55:06;101843.94;;;13.80;24.18
53679;BME280;40119;52.030;4.708;2023-04-27T15:57:10;101840.91;;;15.47;22.93
53679;BME280;40119;52.030;4.708;2023-04-27T15:59:14;101845.04;;;15.64;22.83
53679;BME280;40119;52.030;4.708;2023-04-27T16:01:18;101847.41;;;15.63;23.02
53679;BME280;40119;52.030;4.708;2023-04-27T16:03:22;101846.28;;;12.18;25.87
53679;BME280;40119;52.030;4.708;2023-04-27T16:05:27;101836.34;;;14.86;23.47
53679;BME280;40119;52.030;4.708;2023-04-27T16:07:32;101842.57;;;11.54;26.02
53679;BME280;40119;52.030;4.708;2023-04-27T16:09:37;101832.28;;;15.01;23.44
53679;BME280;40119;52.030;4.708;2023-04-27T16:11:41;101829.70;;;13.89;23.90
53679;BME280;40119;52.030;4.708;2023-04-27T16:13:45;101827.37;;;14.49;23.19
53679;BME280;40119;52.030;4.708;2023-04-27T16:15:49;101823.92;;;13.86;23.18
53679;BME280;40119;52.030;4.708;2023-04-27T16:17:54;101823.29;;;14.22;22.73
53679;BME280;40119;52.030;4.708;2023-04-27T16:19:58;101819.81;;;14.10;22.25
53679;BME280;40119;52.030;4.708;2023-04-27T16:22:02;101825.39;;;11.71;25.30
53679;BME280;40119;52.030;4.708;2023-04-27T16:24:06;101808.94;;;14.05;22.23
53679;BME280;40119;52.030;4.708;2023-04-27T16:26:11;101808.22;;;10.63;26.47
53679;BME280;40119;52.030;4.708;2023-04-27T16:28:15;101797.24;;;13.75;22.72
53679;BME280;40119;52.030;4.708;2023-04-27T16:30:19;101790.51;;;14.75;21.79
53679;BME280;40119;52.030;4.708;2023-04-27T16:32:23;101803.41;;;13.28;23.48
53679;BME280;40119;52.030;4.708;2023-04-27T16:34:27;101808.38;;;8.65;28.96
53679;BME280;40119;52.030;4.708;2023-04-27T16:36:31;101797.51;;;13.69;23.84
53679;BME280;40119;52.030;4.708;2023-04-27T16:38:36;101796.68;;;12.77;24.84
53679;BME280;40119;52.030;4.708;2023-04-27T16:40:40;101799.56;;;11.98;26.00
53679;BME280;40119;52.030;4.708;2023-04-27T16:42:45;101798.06;;;13.08;25.40
53679;BME280;40119;52.030;4.708;2023-04-27T16:44:50;101797.89;;;13.61;23.52
53679;BME280;40119;52.030;4.708;2023-04-27T16:46:54;101794.19;;;15.12;22.26
53679;BME280;40119;52.030;4.708;2023-04-27T16:48:58;101792.67;;;13.04;24.69
53679;BME280;40119;52.030;4.708;2023-04-27T16:51:03;101795.92;;;12.87;25.20
53679;BME280;40119;52.030;4.708;2023-04-27T16:53:09;101796.26;;;15.68;22.81
53679;BME280;40119;52.030;4.708;2023-04-27T16:55:14;101795.75;;;14.29;23.75
53679;BME280;40119;52.030;4.708;2023-04-27T16:57:18;101790.40;;;13.60;24.43
53679;BME280;40119;52.030;4.708;2023-04-27T16:59:22;101789.16;;;14.88;23.62
53679;BME280;40119;52.030;4.708;2023-04-27T17:01:27;101792.89;;;12.50;25.86
53679;BME280;40119;52.030;4.708;2023-04-27T17:03:32;101791.97;;;11.78;27.74
53679;BME280;40119;52.030;4.708;2023-04-27T17:05:36;101782.20;;;15.39;23.19
53679;BME280;40119;52.030;4.708;2023-04-27T17:07:41;101784.36;;;12.93;25.69
53679;BME280;40119;52.030;4.708;2023-04-27T17:09:45;101780.16;;;16.57;22.45
53679;BME280;40119;52.030;4.708;2023-04-27T17:11:50;101787.09;;;11.31;26.89
53679;BME280;40119;52.030;4.708;2023-04-27T17:13:54;101783.26;;;10.91;27.83
53679;BME280;40119;52.030;4.708;2023-04-27T17:16:00;101782.86;;;11.86;27.07
53679;BME280;40119;52.030;4.708;2023-04-27T17:18:05;101776.17;;;15.25;23.04
53679;BME280;40119;52.030;4.708;2023-04-27T17:20:11;101777.36;;;16.90;21.78
53679;BME280;40119;52.030;4.708;2023-04-27T17:22:17;101779.35;;;16.62;22.25
53679;BME280;40119;52.030;4.708;2023-04-27T17:24:32;101779.64;;;15.01;23.23
53679;BME280;40119;52.030;4.708;2023-04-27T17:26:37;101777.12;;;13.03;25.69
53679;BME280;40119;52.030;4.708;2023-04-27T17:28:41;101772.26;;;13.06;25.73
53679;BME280;40119;52.030;4.708;2023-04-27T17:30:46;101764.50;;;16.33;22.77
53679;BME280;40119;52.030;4.708;2023-04-27T17:32:58;101763.12;;;14.89;24.39
53679;BME280;40119;52.030;4.708;2023-04-27T17:35:05;101758.47;;;17.62;22.39
53679;BME280;40119;52.030;4.708;2023-04-27T17:37:25;101765.27;;;15.66;23.48
53679;BME280;40119;52.030;4.708;2023-04-27T17:39:29;101768.55;;;14.70;24.53
53679;BME280;40119;52.030;4.708;2023-04-27T17:41:34;101771.09;;;16.20;22.99
53679;BME280;40119;52.030;4.708;2023-04-27T17:43:58;101764.74;;;17.67;22.23
53679;BME280;40119;52.030;4.708;2023-04-27T17:46:07;101760.00;;;17.38;22.52
53679;BME280;40119;52.030;4.708;2023-04-27T17:48:18;101761.72;;;16.60;23.04
53679;BME280;40119;52.030;4.708;2023-04-27T17:50:24;101756.19;;;16.38;23.02
53679;BME280;40119;52.030;4.708;2023-04-27T17:52:32;101752.11;;;16.73;23.29
53679;BME280;40119;52.030;4.708;2023-04-27T17:54:42;101751.25;;;17.03;22.57
53679;BME280;40119;52.030;4.708;2023-04-27T17:56:46;101753.67;;;14.77;24.78
53679;BME280;40119;52.030;4.708;2023-04-27T17:58:56;101752.13;;;17.49;22.66
53679;BME280;40119;52.030;4.708;2023-04-27T18:01:00;101758.33;;;14.85;24.86
53679;BME280;40119;52.030;4.708;2023-04-27T18:03:04;101757.09;;;14.05;25.97
53679;BME280;40119;52.030;4.708;2023-04-27T18:05:09;101759.39;;;13.97;25.66
53679;BME280;40119;52.030;4.708;2023-04-27T18:07:14;101754.24;;;16.65;23.19
53679;BME280;40119;52.030;4.708;2023-04-27T18:09:18;101752.36;;;14.73;25.03
53679;BME280;40119;52.030;4.708;2023-04-27T18:13:29;101750.44;;;13.92;25.51
53679;BME280;40119;52.030;4.708;2023-04-27T18:15:40;101749.57;;;13.69;26.43
53679;BME280;40119;52.030;4.708;2023-04-27T18:17:45;101746.33;;;12.86;26.75
53679;BME280;40119;52.030;4.708;2023-04-27T18:19:49;101742.01;;;14.57;25.09
53679;BME280;40119;52.030;4.708;2023-04-27T18:21:54;101742.08;;;15.20;24.85
53679;BME280;40119;52.030;4.708;2023-04-27T18:24:01;101741.11;;;16.39;24.21
53679;BME280;40119;52.030;4.708;2023-04-27T18:26:05;101741.81;;;15.47;25.03
53679;BME280;40119;52.030;4.708;2023-04-27T18:28:10;101735.01;;;16.54;23.79
53679;BME280;40119;52.030;4.708;2023-04-27T18:30:14;101737.92;;;16.31;24.04
53679;BME280;40119;52.030;4.708;2023-04-27T18:32:19;101739.08;;;15.86;24.27
53679;BME280;40119;52.030;4.708;2023-04-27T18:34:23;101732.81;;;17.41;23.23
53679;BME280;40119;52.030;4.708;2023-04-27T18:36:27;101737.92;;;15.19;25.11
53679;BME280;40119;52.030;4.708;2023-04-27T18:38:32;101736.93;;;14.91;25.50
53679;BME280;40119;52.030;4.708;2023-04-27T18:40:37;101735.24;;;16.57;24.45
53679;BME280;40119;52.030;4.708;2023-04-27T18:42:49;101745.18;;;11.50;28.87
53679;BME280;40119;52.030;4.708;2023-04-27T18:44:54;101741.69;;;14.62;26.17
53679;BME280;40119;52.030;4.708;2023-04-27T18:46:59;101738.93;;;15.86;24.76
53679;BME280;40119;52.030;4.708;2023-04-27T18:49:04;101730.84;;;16.68;23.84
53679;BME280;40119;52.030;4.708;2023-04-27T18:51:08;101728.33;;;15.77;24.85
53679;BME280;40119;52.030;4.708;2023-04-27T18:53:13;101729.37;;;14.12;26.27
53679;BME280;40119;52.030;4.708;2023-04-27T18:55:37;101727.98;;;15.55;25.34
53679;BME280;40119;52.030;4.708;2023-04-27T18:57:41;101723.42;;;16.22;25.36
53679;BME280;40119;52.030;4.708;2023-04-27T18:59:46;101719.57;;;13.66;27.17
53679;BME280;40119;52.030;4.708;2023-04-27T19:01:55;101722.94;;;15.65;25.10
53679;BME280;40119;52.030;4.708;2023-04-27T19:03:59;101722.63;;;15.89;25.61
53679;BME280;40119;52.030;4.708;2023-04-27T19:06:04;101722.62;;;13.70;27.44
53679;BME280;40119;52.030;4.708;2023-04-27T19:08:08;101721.69;;;13.57;27.77
53679;BME280;40119;52.030;4.708;2023-04-27T19:10:13;101724.21;;;15.11;26.12
53679;BME280;40119;52.030;4.708;2023-04-27T19:12:17;101721.71;;;15.69;25.59
53679;BME280;40119;52.030;4.708;2023-04-27T19:14:22;101721.54;;;15.26;25.96
53679;BME280;40119;52.030;4.708;2023-04-27T19:16:26;101719.79;;;15.56;25.86
53679;BME280;40119;52.030;4.708;2023-04-27T19:18:30;101717.40;;;14.88;26.96
53679;BME280;40119;52.030;4.708;2023-04-27T19:20:35;101714.79;;;15.45;25.61
53679;BME280;40119;52.030;4.708;2023-04-27T19:22:39;101718.81;;;15.13;26.46
53679;BME280;40119;52.030;4.708;2023-04-27T19:24:45;101718.81;;;15.85;25.64
53679;BME280;40119;52.030;4.708;2023-04-27T19:26:50;101720.25;;;15.08;26.48
53679;BME280;40119;52.030;4.708;2023-04-27T19:29:08;101722.12;;;14.78;26.41
53679;BME280;40119;52.030;4.708;2023-04-27T19:31:12;101721.91;;;15.76;25.13
53679;BME280;40119;52.030;4.708;2023-04-27T19:33:17;101725.22;;;16.21;24.78
53679;BME280;40119;52.030;4.708;2023-04-27T19:35:22;101723.26;;;16.55;24.66
53679;BME280;40119;52.030;4.708;2023-04-27T19:37:28;101720.52;;;16.46;24.36
53679;BME280;40119;52.030;4.708;2023-04-27T19:39:33;101718.45;;;15.23;25.72
53679;BME280;40119;52.030;4.708;2023-04-27T19:41:42;101713.48;;;16.15;24.66
53679;BME280;40119;52.030;4.708;2023-04-27T19:43:46;101714.18;;;15.50;25.29
53679;BME280;40119;52.030;4.708;2023-04-27T19:45:56;101718.20;;;14.33;26.97
53679;BME280;40119;52.030;4.708;2023-04-27T19:48:00;101716.37;;;14.94;26.36